Time;durP1;ratioP1;P1;durP2;ratioP2;P2;SDS_P1;SDS_P2;PMS_P1;PMS_P2;Temp;Humidity;BMP_temperature;BMP_pressure;BME280_temperature;BME280_humidity;BME280_pressure;Samples;Min_cycle;Max_cycle;Signal;HPM_P1;HPM_P2
2021/09/20 00:01:48;;;;;;;;;;;;;;;13.07;66.66;101127.91;1691838;83;20254;-84
2021/09/20 00:04:20;;;;;;;;;;;;;;;13.02;66.89;101132.05;1691341;83;20262;-83
2021/09/20 00:06:52;;;;;;;;;;;;;;;12.97;67.04;101121.42;1691673;83;20276;-82
2021/09/20 00:09:26;;;;;;;;;;;;;;;12.93;67.03;101128.59;1691972;85;20267;-83
2021/09/20 00:12:02;;;;;;;;;;;;;;;12.91;67.22;101133.59;1691111;85;20557;-85
2021/09/20 00:14:34;;;;;;;;;;;;;;;12.88;67.18;101133.57;1692638;83;20205;-81
2021/09/20 00:17:07;;;;;;;;;;;;;;;12.89;67.33;101133.86;1696138;85;20229;-79
2021/09/20 00:19:39;;;;;;;;;;;;;;;12.91;67.31;101127.45;1696297;85;20205;-83
2021/09/20 00:22:11;;;;;;;;;;;;;;;12.92;67.50;101138.92;1696494;83;20261;-84
2021/09/20 00:24:43;;;;;;;;;;;;;;;12.94;67.25;101143.66;1696582;85;20555;-81
2021/09/20 00:27:16;;;;;;;;;;;;;;;12.93;67.11;101136.95;1696236;84;20201;-83
2021/09/20 00:29:49;;;;;;;;;;;;;;;12.91;67.10;101139.99;1696139;82;20194;-82
2021/09/20 00:32:21;;;;;;;;;;;;;;;12.90;67.19;101138.32;1696353;85;20197;-82
2021/09/20 00:34:54;;;;;;;;;;;;;;;12.90;67.30;101138.32;1680926;84;20288;-71
2021/09/20 00:37:26;;;;;;;;;;;;;;;12.92;67.40;101148.67;1668167;86;20349;-74
2021/09/20 00:39:58;;;;;;;;;;;;;;;12.92;67.47;101147.28;1668117;85;20216;-75
2021/09/20 00:42:29;;;;;;;;;;;;;;;12.94;67.46;101158.99;1668212;84;20190;-75
2021/09/20 00:45:01;;;;;;;;;;;;;;;12.93;67.56;101159.25;1668377;84;20583;-74
2021/09/20 00:47:33;;;;;;;;;;;;;;;12.94;67.58;101159.53;1668148;84;20217;-75
2021/09/20 00:50:06;;;;;;;;;;;;;;;12.98;67.57;101150.97;1668116;85;20218;-76
2021/09/20 00:52:39;;;;;;;;;;;;;;;13.01;67.48;101145.70;1669957;84;20226;-76
2021/09/20 00:55:10;;;;;;;;;;;;;;;13.04;67.49;101142.41;1694642;83;20194;-75
2021/09/20 00:57:42;;;;;;;;;;;;;;;13.06;67.36;101140.72;1694898;85;20289;-75
2021/09/20 01:00:16;;;;;;;;;;;;;;;13.03;67.28;101147.66;1694651;85;20271;-75
2021/09/20 01:02:47;;;;;;;;;;;;;;;13.02;67.30;101145.98;1694604;85;20266;-74
2021/09/20 01:05:21;;;;;;;;;;;;;;;13.01;67.26;101141.52;1694545;85;20222;-74
2021/09/20 01:07:52;;;;;;;;;;;;;;;13.00;67.48;101143.17;1694699;85;20269;-75
2021/09/20 01:10:23;;;;;;;;;;;;;;;12.99;67.59;101140.96;1694783;85;20273;-75
2021/09/20 01:12:55;;;;;;;;;;;;;;;12.98;67.68;101142.61;1694809;85;20609;-75
2021/09/20 01:15:26;;;;;;;;;;;;;;;12.96;67.83;101140.66;1691705;83;20262;-75
2021/09/20 01:17:58;;;;;;;;;;;;;;;12.97;67.79;101145.11;1678076;84;20258;-76
2021/09/20 01:20:30;;;;;;;;;;;;;;;12.92;67.77;101134.73;1677674;85;20203;-81
2021/09/20 01:23:03;;;;;;;;;;;;;;;12.90;67.90;101135.53;1678140;85;20609;-76
2021/09/20 01:25:35;;;;;;;;;;;;;;;12.93;68.10;101133.62;1678399;85;20214;-75
2021/09/20 01:28:06;;;;;;;;;;;;;;;12.99;68.11;101138.71;1679120;85;20319;-73
2021/09/20 01:30:38;;;;;;;;;;;;;;;12.99;68.03;101125.63;1678833;85;20274;-75
2021/09/20 01:33:09;;;;;;;;;;;;;;;13.01;68.15;101124.80;1679081;85;20298;-76
2021/09/20 01:35:41;;;;;;;;;;;;;;;13.02;68.12;101126.47;1678401;84;20198;-76
2021/09/20 01:38:12;;;;;;;;;;;;;;;13.04;68.22;101120.10;1677578;85;20190;-76
2021/09/20 01:40:45;;;;;;;;;;;;;;;13.01;67.97;101117.83;1677700;85;20274;-76
2021/09/20 01:43:19;;;;;;;;;;;;;;;12.97;67.99;101122.24;1678591;84;20191;-75
2021/09/20 01:45:50;;;;;;;;;;;;;;;12.95;67.97;101125.00;1679206;84;20198;-73
2021/09/20 01:48:22;;;;;;;;;;;;;;;12.89;68.19;101125.50;1679020;84;20209;-74
2021/09/20 01:50:54;;;;;;;;;;;;;;;12.86;68.37;101125.19;1679069;85;20226;-74
2021/09/20 01:53:25;;;;;;;;;;;;;;;12.83;68.57;101119.59;1678961;85;20368;-75
2021/09/20 01:55:57;;;;;;;;;;;;;;;12.78;68.69;101118.71;1677872;84;20682;-75
2021/09/20 01:58:28;;;;;;;;;;;;;;;12.72;68.82;101130.34;1668686;85;20262;-76
2021/09/20 02:01:00;;;;;;;;;;;;;;;12.68;68.97;101132.00;1667884;85;20214;-78
2021/09/20 02:03:31;;;;;;;;;;;;;;;12.66;69.29;101136.15;1667087;85;20221;-80
2021/09/20 02:06:03;;;;;;;;;;;;;;;12.63;69.44;101136.66;1674257;85;20246;-79
2021/09/20 02:08:35;;;;;;;;;;;;;;;12.63;69.72;101131.08;1680993;84;20226;-78
2021/09/20 02:11:08;;;;;;;;;;;;;;;12.64;69.67;101132.22;1679374;85;20206;-75
2021/09/20 02:13:39;;;;;;;;;;;;;;;12.64;69.68;101136.41;1677621;85;20325;-76
2021/09/20 02:16:11;;;;;;;;;;;;;;;12.57;69.65;101145.52;1678758;84;20194;-76
2021/09/20 02:18:43;;;;;;;;;;;;;;;12.52;69.81;101143.22;1694985;82;20265;-76
2021/09/20 02:21:15;;;;;;;;;;;;;;;12.44;69.93;101143.70;1696099;83;20587;-75
2021/09/20 02:23:47;;;;;;;;;;;;;;;12.36;70.00;101148.35;1696184;85;20297;-76
2021/09/20 02:26:19;;;;;;;;;;;;;;;12.27;70.17;101141.01;1696205;85;20242;-76
2021/09/20 02:28:51;;;;;;;;;;;;;;;12.19;70.46;101143.41;1694837;83;20230;-80
2021/09/20 02:31:23;;;;;;;;;;;;;;;12.14;70.76;101140.56;1694575;83;20266;-80
2021/09/20 02:33:55;;;;;;;;;;;;;;;12.07;71.00;101140.77;1701542;83;20190;-78
2021/09/20 02:36:26;;;;;;;;;;;;;;;12.01;71.14;101134.84;1699758;84;20594;-80
2021/09/20 02:38:58;;;;;;;;;;;;;;;11.96;71.45;101136.17;1691150;83;20325;-76
2021/09/20 02:41:30;;;;;;;;;;;;;;;11.95;71.52;101126.68;1693676;83;20265;-80
2021/09/20 02:44:02;;;;;;;;;;;;;;;11.96;71.67;101133.92;1689955;85;20194;-80
2021/09/20 02:46:35;;;;;;;;;;;;;;;11.97;71.95;101143.41;1691289;85;20196;-80
2021/09/20 02:49:07;;;;;;;;;;;;;;;12.02;72.14;101140.70;1696344;85;20252;-79
2021/09/20 02:51:39;;;;;;;;;;;;;;;12.03;71.93;101136.81;1696243;85;20266;-78
2021/09/20 02:54:10;;;;;;;;;;;;;;;12.03;71.79;101143.77;1696457;85;20206;-81
2021/09/20 02:56:42;;;;;;;;;;;;;;;12.04;71.76;101145.45;1696508;82;20321;-80
2021/09/20 02:59:15;;;;;;;;;;;;;;;11.99;71.68;101142.59;1676267;85;20232;-80
2021/09/20 03:01:47;;;;;;;;;;;;;;;11.94;71.78;101143.95;1696509;85;20202;-81
2021/09/20 03:04:19;;;;;;;;;;;;;;;11.96;71.99;101140.88;1696664;85;20257;-80
2021/09/20 03:06:51;;;;;;;;;;;;;;;11.93;71.94;101142.23;1696416;85;20253;-80
2021/09/20 03:09:25;;;;;;;;;;;;;;;11.89;72.10;101152.22;1696432;85;20230;-79
2021/09/20 03:11:59;;;;;;;;;;;;;;;11.87;72.32;101148.02;1696212;85;20566;-80
2021/09/20 03:14:33;;;;;;;;;;;;;;;11.88;72.47;101143.59;1693195;85;20262;-77
2021/09/20 03:17:06;;;;;;;;;;;;;;;11.93;72.58;101148.38;1669673;84;20244;-74
2021/09/20 03:19:38;;;;;;;;;;;;;;;11.99;72.74;101152.33;1668072;85;20192;-80
2021/09/20 03:22:10;;;;;;;;;;;;;;;12.03;72.54;101146.55;1668046;84;20247;-82
2021/09/20 03:24:43;;;;;;;;;;;;;;;12.02;72.40;101144.88;1668471;85;20583;-84
2021/09/20 03:27:14;;;;;;;;;;;;;;;12.01;72.32;101156.27;1678526;83;20198;-82
2021/09/20 03:29:46;;;;;;;;;;;;;;;11.94;72.25;101156.47;1696546;83;20300;-86
2021/09/20 03:32:17;;;;;;;;;;;;;;;11.88;72.15;101165.84;1693665;85;20270;-85
2021/09/20 03:34:49;;;;;;;;;;;;;;;11.81;72.24;101166.55;1692327;85;20261;-81
2021/09/20 03:37:21;;;;;;;;;;;;;;;11.75;72.51;101162.02;1696333;82;20265;-73
2021/09/20 03:39:53;;;;;;;;;;;;;;;11.74;72.63;101171.47;1696421;83;20388;-79
2021/09/20 03:42:24;;;;;;;;;;;;;;;11.74;72.83;101169.25;1693464;85;20198;-79
2021/09/20 03:44:56;;;;;;;;;;;;;;;11.74;72.67;101172.04;1696347;82;20302;-77
2021/09/20 03:47:28;;;;;;;;;;;;;;;11.77;72.74;101181.25;1696257;85;20262;-79
2021/09/20 03:49:59;;;;;;;;;;;;;;;11.82;72.71;101172.44;1696259;83;20246;-77
2021/09/20 03:52:31;;;;;;;;;;;;;;;11.86;72.59;101176.37;1696311;85;20263;-78
2021/09/20 03:55:04;;;;;;;;;;;;;;;11.89;72.58;101176.41;1696295;85;20190;-79
2021/09/20 03:57:36;;;;;;;;;;;;;;;11.88;72.32;101170.56;1696492;83;20602;-78
2021/09/20 04:00:11;;;;;;;;;;;;;;;11.86;72.37;101165.81;1695696;85;20269;-76
2021/09/20 04:02:42;;;;;;;;;;;;;;;11.82;72.29;101168.80;1687404;83;20554;-75
2021/09/20 04:05:14;;;;;;;;;;;;;;;11.79;72.28;101170.73;1693133;85;20676;-75
2021/09/20 04:07:46;;;;;;;;;;;;;;;11.81;72.27;101174.08;1693223;83;20265;-74
2021/09/20 04:10:19;;;;;;;;;;;;;;;11.78;72.33;101172.66;1696329;85;20225;-79
2021/09/20 04:12:51;;;;;;;;;;;;;;;11.78;72.38;101169.02;1688229;82;20268;-75
2021/09/20 04:15:23;;;;;;;;;;;;;;;11.76;72.57;101180.42;1692462;85;20625;-76
2021/09/20 04:17:55;;;;;;;;;;;;;;;11.78;72.61;101187.09;1696325;83;20190;-75
2021/09/20 04:20:27;;;;;;;;;;;;;;;11.77;72.62;101187.66;1700532;84;20205;-75
2021/09/20 04:22:59;;;;;;;;;;;;;;;11.77;72.76;101191.84;1697606;84;20201;-75
2021/09/20 04:25:30;;;;;;;;;;;;;;;11.74;72.87;101191.52;1686449;84;20257;-76
2021/09/20 04:28:02;;;;;;;;;;;;;;;11.76;72.96;101194.33;1676753;84;20219;-77
2021/09/20 04:30:34;;;;;;;;;;;;;;;11.77;73.00;101189.05;1674487;84;20319;-76
2021/09/20 04:33:06;;;;;;;;;;;;;;;11.78;73.17;101190.73;1701809;83;20206;-77
2021/09/20 04:35:38;;;;;;;;;;;;;;;11.84;73.20;101186.92;1702154;84;20261;-79
2021/09/20 04:38:10;;;;;;;;;;;;;;;11.89;73.22;101195.35;1702001;83;20292;-76
2021/09/20 04:40:44;;;;;;;;;;;;;;;11.94;73.09;101197.36;1701194;84;20261;-76
2021/09/20 04:43:15;;;;;;;;;;;;;;;11.95;72.94;101191.54;1701196;84;20269;-76
2021/09/20 04:45:48;;;;;;;;;;;;;;;11.95;72.84;101194.33;1702351;83;20233;-72
2021/09/20 04:48:21;;;;;;;;;;;;;;;11.96;72.93;101202.11;1698977;83;20354;-74
2021/09/20 04:50:53;;;;;;;;;;;;;;;12.00;72.90;101215.81;1701582;84;20265;-76
2021/09/20 04:53:25;;;;;;;;;;;;;;;12.05;72.96;101214.49;1699994;84;20201;-83
2021/09/20 04:55:56;;;;;;;;;;;;;;;12.15;72.94;101217.39;1696334;83;20190;-82
2021/09/20 04:58:28;;;;;;;;;;;;;;;12.24;72.95;101216.69;1700145;84;20305;-77
2021/09/20 05:00:59;;;;;;;;;;;;;;;12.35;72.79;101218.50;1700815;84;20344;-73
2021/09/20 05:03:32;;;;;;;;;;;;;;;12.49;72.42;101217.03;1701628;84;20558;-79
2021/09/20 05:06:04;;;;;;;;;;;;;;;12.63;72.15;101221.62;1700812;83;20296;-84
2021/09/20 05:08:36;;;;;;;;;;;;;;;12.77;71.85;101218.74;1698276;84;20609;-81
2021/09/20 05:11:11;;;;;;;;;;;;;;;12.91;71.66;101218.61;1698255;84;20685;-79
2021/09/20 05:13:43;;;;;;;;;;;;;;;13.05;71.30;101229.11;1685713;84;20205;-79
2021/09/20 05:16:15;;;;;;;;;;;;;;;13.25;71.08;101225.65;1700428;83;20289;-83
2021/09/20 05:18:48;;;;;;;;;;;;;;;13.50;70.61;101232.88;1697513;83;20245;-80
2021/09/20 05:21:22;;;;;;;;;;;;;;;13.83;69.87;101229.22;1700501;84;20194;-82
2021/09/20 05:23:55;;;;;;;;;;;;;;;14.24;69.12;101233.95;1697409;83;20268;-76
2021/09/20 05:26:26;;;;;;;;;;;;;;;14.75;68.57;101233.62;1700635;84;20265;-73
2021/09/20 05:28:58;;;;;;;;;;;;;;;15.31;67.25;101229.81;1702074;84;20308;-76
2021/09/20 05:31:30;;;;;;;;;;;;;;;15.78;65.37;101227.61;1701975;83;20312;-79
2021/09/20 05:34:01;;;;;;;;;;;;;;;16.26;64.27;101230.03;1701944;84;20336;-81
2021/09/20 05:36:33;;;;;;;;;;;;;;;16.74;62.75;101220.90;1701967;84;20328;-82
2021/09/20 05:39:05;;;;;;;;;;;;;;;17.22;61.79;101220.05;1702025;84;20293;-81
2021/09/20 05:41:36;;;;;;;;;;;;;;;17.71;60.31;101226.97;1701876;83;20293;-76
2021/09/20 05:44:08;;;;;;;;;;;;;;;18.21;59.91;101218.88;1696952;84;20208;-80
2021/09/20 05:46:39;;;;;;;;;;;;;;;18.59;57.41;101212.84;1700117;83;20308;-81
2021/09/20 05:49:11;;;;;;;;;;;;;;;18.80;56.61;101210.86;1693499;84;20328;-76
2021/09/20 05:51:45;;;;;;;;;;;;;;;19.01;55.53;101215.64;1701441;84;20237;-82
2021/09/20 05:54:18;;;;;;;;;;;;;;;19.29;55.08;101223.11;1699040;83;20214;-81
2021/09/20 05:56:50;;;;;;;;;;;;;;;19.48;53.88;101220.56;1701447;84;20233;-77
2021/09/20 05:59:24;;;;;;;;;;;;;;;19.69;53.35;101215.42;1701545;84;20262;-81
2021/09/20 06:01:56;;;;;;;;;;;;;;;19.88;52.37;101208.56;1698473;84;20328;-75
2021/09/20 06:04:29;;;;;;;;;;;;;;;20.08;51.81;101207.39;1701405;84;20629;-79
2021/09/20 06:07:01;;;;;;;;;;;;;;;20.24;51.18;101214.43;1701699;84;20273;-85
2021/09/20 06:09:35;;;;;;;;;;;;;;;20.50;51.72;101216.99;1697833;84;20293;-80
2021/09/20 06:12:07;;;;;;;;;;;;;;;20.83;50.76;101222.77;1701654;84;20270;-82
2021/09/20 06:14:39;;;;;;;;;;;;;;;21.03;49.41;101217.54;1701726;84;20610;-83
2021/09/20 06:17:10;;;;;;;;;;;;;;;21.18;48.92;101226.25;1701703;84;20535;-83
2021/09/20 06:19:41;;;;;;;;;;;;;;;21.28;48.42;101224.61;1701457;83;20194;-78
2021/09/20 06:22:14;;;;;;;;;;;;;;;21.38;48.44;101225.75;1709793;84;20236;-82
2021/09/20 06:24:47;;;;;;;;;;;;;;;21.51;48.65;101229.95;1683026;85;20346;-80
2021/09/20 06:27:21;;;;;;;;;;;;;;;21.65;47.08;101228.49;1733959;80;20733;-76
2021/09/20 06:29:53;;;;;;;;;;;;;;;21.72;46.77;101228.91;1739649;82;20251;-76
2021/09/20 06:32:24;;;;;;;;;;;;;;;21.75;46.26;101233.34;1739488;82;20202;-78
2021/09/20 06:34:56;;;;;;;;;;;;;;;21.82;46.09;101231.48;1739504;81;20257;-76
2021/09/20 06:37:29;;;;;;;;;;;;;;;21.87;45.25;101236.42;1727785;82;20252;-77
2021/09/20 06:40:04;;;;;;;;;;;;;;;21.90;44.96;101237.77;1703620;83;20582;-79
2021/09/20 06:42:35;;;;;;;;;;;;;;;21.77;44.92;101235.85;1696947;82;20258;-79
2021/09/20 06:45:08;;;;;;;;;;;;;;;21.71;45.20;101238.55;1729771;82;20235;-84
2021/09/20 06:47:42;;;;;;;;;;;;;;;21.72;45.14;101232.58;1731812;82;20314;-77
2021/09/20 06:50:14;;;;;;;;;;;;;;;21.65;44.51;101237.80;1707516;82;20187;-75
2021/09/20 06:52:45;;;;;;;;;;;;;;;21.43;44.60;101236.95;1704688;82;20255;-77
2021/09/20 06:55:17;;;;;;;;;;;;;;;21.13;44.62;101241.33;1733262;81;20254;-76
2021/09/20 06:57:48;;;;;;;;;;;;;;;20.92;45.52;101233.03;1727993;82;20622;-74
2021/09/20 07:00:19;;;;;;;;;;;;;;;20.72;45.82;101239.69;1726553;82;20196;-81
2021/09/20 07:02:51;;;;;;;;;;;;;;;20.59;46.38;101241.91;1706391;82;20222;-82
2021/09/20 07:05:24;;;;;;;;;;;;;;;20.40;45.76;101236.38;1741067;82;20581;-79
2021/09/20 07:08:00;;;;;;;;;;;;;;;20.30;45.53;101231.52;1741262;82;20302;-82
2021/09/20 07:10:32;;;;;;;;;;;;;;;20.19;45.87;101239.31;1741087;82;20531;-75
2021/09/20 07:13:09;;;;;;;;;;;;;;;20.02;45.57;101237.66;1741093;82;20267;-74
2021/09/20 07:15:38;;;;;;;;;;;;;;;19.91;46.31;101232.48;1738314;82;20202;-79
2021/09/20 07:18:11;;;;;;;;;;;;;;;19.83;46.19;101227.01;1741104;82;20223;-73
2021/09/20 07:20:44;;;;;;;;;;;;;;;19.80;46.54;101228.20;1740981;82;20571;-78
2021/09/20 07:23:17;;;;;;;;;;;;;;;19.76;46.69;101224.31;1712084;82;20199;-74
2021/09/20 07:25:50;;;;;;;;;;;;;;;19.70;47.24;101226.36;1741039;82;20198;-77
2021/09/20 07:28:21;;;;;;;;;;;;;;;19.65;46.65;101225.62;1704029;82;20605;-72
2021/09/20 07:30:54;;;;;;;;;;;;;;;19.63;47.57;101226.52;1700359;84;20641;-71
2021/09/20 07:33:25;;;;;;;;;;;;;;;19.60;46.85;101231.34;1700699;84;20289;-84
2021/09/20 07:35:59;;;;;;;;;;;;;;;19.55;46.62;101227.19;1700700;84;20569;-72
2021/09/20 07:38:30;;;;;;;;;;;;;;;19.57;47.34;101226.34;1700782;84;20271;-87
2021/09/20 07:41:02;;;;;;;;;;;;;;;19.61;46.27;101233.02;1700706;84;20335;-78
2021/09/20 07:43:35;;;;;;;;;;;;;;;19.56;45.70;101226.89;1700840;84;21070;-72
2021/09/20 07:46:08;;;;;;;;;;;;;;;19.53;46.63;101228.93;1700994;84;20617;-85
2021/09/20 07:48:40;;;;;;;;;;;;;;;19.51;45.66;101229.79;1700653;84;20324;-74
2021/09/20 07:51:13;;;;;;;;;;;;;;;19.49;46.43;101227.01;1682819;84;20553;-73
2021/09/20 07:53:46;;;;;;;;;;;;;;;19.51;46.56;101233.20;1738230;82;20206;-77
2021/09/20 07:56:18;;;;;;;;;;;;;;;19.47;46.55;101229.30;1708755;84;20240;-71
2021/09/20 07:58:51;;;;;;;;;;;;;;;19.44;46.24;101235.57;1707223;84;20549;-72
2021/09/20 08:01:22;;;;;;;;;;;;;;;19.35;46.75;101227.53;1738181;82;20190;-72
2021/09/20 08:03:56;;;;;;;;;;;;;;;19.29;46.80;101227.34;1740942;82;20250;-76
2021/09/20 08:06:28;;;;;;;;;;;;;;;19.30;47.19;101231.27;1719819;83;20298;-76
2021/09/20 08:09:00;;;;;;;;;;;;;;;19.30;47.38;101221.97;1720022;83;20555;-72
2021/09/20 08:11:32;;;;;;;;;;;;;;;19.31;47.26;101218.85;1720187;83;20556;-78
2021/09/20 08:14:03;;;;;;;;;;;;;;;19.32;47.85;101218.30;1720062;82;20195;-82
2021/09/20 08:16:38;;;;;;;;;;;;;;;19.33;47.69;101214.33;1720212;83;20199;-72
2021/09/20 08:19:10;;;;;;;;;;;;;;;19.35;48.06;101219.93;1720300;83;20576;-76
2021/09/20 08:21:43;;;;;;;;;;;;;;;19.36;47.73;101213.14;1698608;83;20258;-72
2021/09/20 08:24:17;;;;;;;;;;;;;;;19.33;47.87;101211.52;1690742;83;20626;-75
2021/09/20 08:26:49;;;;;;;;;;;;;;;19.31;47.05;101202.52;1732544;82;20271;-73
2021/09/20 08:29:22;;;;;;;;;;;;;;;19.28;46.11;101210.18;1723801;81;20295;-75
2021/09/20 08:31:54;;;;;;;;;;;;;;;19.27;46.53;101212.73;1696626;84;20196;-74
2021/09/20 08:34:25;;;;;;;;;;;;;;;19.26;46.85;101214.70;1725624;82;20326;-70
2021/09/20 08:36:57;;;;;;;;;;;;;;;19.23;46.89;101209.70;1734592;82;20251;-70
2021/09/20 08:39:29;;;;;;;;;;;;;;;19.20;46.49;101213.10;1733191;82;20207;-71
2021/09/20 08:42:01;;;;;;;;;;;;;;;19.11;46.11;101214.91;1734586;81;20267;-71
2021/09/20 08:44:34;;;;;;;;;;;;;;;19.07;46.46;101209.62;1735177;82;20229;-73
2021/09/20 08:47:05;;;;;;;;;;;;;;;19.04;45.74;101203.20;1733893;82;20281;-73
2021/09/20 08:49:37;;;;;;;;;;;;;;;19.02;45.53;101206.05;1733734;82;20191;-74
2021/09/20 08:52:08;;;;;;;;;;;;;;;18.97;46.05;101207.52;1707990;83;20968;-72
2021/09/20 08:54:42;;;;;;;;;;;;;;;18.94;46.56;101223.04;1734112;82;20303;-72
2021/09/20 08:57:13;;;;;;;;;;;;;;;18.90;46.63;101202.26;1734996;82;20300;-74
2021/09/20 08:59:46;;;;;;;;;;;;;;;18.90;47.48;101209.30;1731905;82;20195;-75
2021/09/20 09:02:18;;;;;;;;;;;;;;;18.91;47.39;101212.95;1734543;82;20243;-71
2021/09/20 09:04:51;;;;;;;;;;;;;;;18.90;47.61;101208.48;1735511;82;20190;-72
2021/09/20 09:07:22;;;;;;;;;;;;;;;18.92;47.29;101198.59;1729914;82;20214;-76
2021/09/20 09:12:50;;;;;;;;;;;;;;;18.93;47.57;101210.67;1709036;82;20183;-88
2021/09/20 09:15:24;;;;;;;;;;;;;;;18.96;47.71;101205.86;1670435;85;20155;-87
2021/09/20 09:17:57;;;;;;;;;;;;;;;18.96;47.20;101208.08;1741498;81;20317;-87
2021/09/20 09:20:32;;;;;;;;;;;;;;;18.95;47.16;101209.23;1677396;82;20296;-88
2021/09/20 09:23:07;;;;;;;;;;;;;;;18.97;47.08;101216.79;1728288;81;20191;-77
2021/09/20 09:25:55;;;;;;;;;;;;;;;18.94;46.62;101211.78;1731202;81;20289;-82
2021/09/20 09:28:35;;;;;;;;;;;;;;;18.94;47.04;101223.59;1714877;82;20263;-80
2021/09/20 09:31:13;;;;;;;;;;;;;;;18.95;47.46;101216.27;1711458;84;20199;-83
2021/09/20 09:33:45;;;;;;;;;;;;;;;18.97;47.79;101220.20;1711215;83;20189;-83
2021/09/20 09:36:17;;;;;;;;;;;;;;;18.98;48.02;101217.64;1711306;84;20219;-85
2021/09/20 09:38:59;;;;;;;;;;;;;;;19.00;48.09;101213.38;1711512;82;20544;-81
2021/09/20 09:41:44;;;;;;;;;;;;;;;19.05;48.46;101213.88;1712162;84;20545;-85
2021/09/20 09:44:21;;;;;;;;;;;;;;;19.10;48.14;101212.39;1712321;84;20225;-83
2021/09/20 09:46:52;;;;;;;;;;;;;;;19.17;48.32;101211.44;1736219;82;20657;-82
2021/09/20 09:49:24;;;;;;;;;;;;;;;19.26;47.52;101215.30;1741520;82;20252;-74
2021/09/20 09:51:59;;;;;;;;;;;;;;;19.32;47.62;101212.66;1727919;82;20728;-73
2021/09/20 09:54:53;;;;;;;;;;;;;;;19.37;47.75;101218.19;1672113;84;20182;-73
2021/09/20 09:57:26;;;;;;;;;;;;;;;19.41;47.58;101208.00;1658481;86;20202;-77
2021/09/20 10:00:12;;;;;;;;;;;;;;;19.44;48.04;101215.84;1682953;84;20424;-75
2021/09/20 10:02:49;;;;;;;;;;;;;;;19.45;47.66;101211.88;1682059;84;20262;-76
2021/09/20 10:05:23;;;;;;;;;;;;;;;19.47;47.55;101215.22;1682165;84;20194;-75
2021/09/20 10:07:55;;;;;;;;;;;;;;;19.41;47.20;101207.44;1682067;84;20193;-75
2021/09/20 10:10:29;;;;;;;;;;;;;;;19.35;46.84;101221.89;1682010;85;20559;-75
2021/09/20 10:13:11;;;;;;;;;;;;;;;19.27;46.98;101209.92;1682194;85;20195;-73
2021/09/20 10:15:37;;;;;;;;;;;;;;;19.25;47.10;101211.62;1681556;84;20195;-72
2021/09/20 10:18:09;;;;;;;;;;;;;;;19.24;47.30;101211.92;1682128;85;20655;-74
2021/09/20 10:20:41;;;;;;;;;;;;;;;19.25;47.85;101208.81;1664683;85;20258;-73
2021/09/20 10:23:16;;;;;;;;;;;;;;;19.27;47.60;101194.43;1681980;84;20206;-73
2021/09/20 10:25:48;;;;;;;;;;;;;;;19.29;47.56;101201.99;1682169;85;20190;-75
2021/09/20 10:28:19;;;;;;;;;;;;;;;19.31;47.91;101192.66;1665205;85;20267;-73
2021/09/20 10:30:53;;;;;;;;;;;;;;;19.33;47.91;101189.80;1682185;84;20260;-77
2021/09/20 10:33:27;;;;;;;;;;;;;;;19.34;47.72;101186.42;1682067;84;20215;-74
2021/09/20 10:35:58;;;;;;;;;;;;;;;19.33;48.04;101179.94;1682220;85;20254;-75
2021/09/20 10:38:33;;;;;;;;;;;;;;;19.37;47.85;101182.98;1682163;84;20245;-76
2021/09/20 10:41:21;;;;;;;;;;;;;;;19.41;46.75;101178.41;1682304;85;20251;-72
2021/09/20 10:44:09;;;;;;;;;;;;;;;19.43;46.86;101177.53;1682335;85;20263;-75
2021/09/20 10:46:41;;;;;;;;;;;;;;;19.46;46.78;101183.41;1683567;85;20258;-74
2021/09/20 10:49:25;;;;;;;;;;;;;;;19.44;46.52;101188.50;1684191;84;20266;-75
2021/09/20 10:52:04;;;;;;;;;;;;;;;19.41;46.65;101186.30;1683274;85;20337;-74
2021/09/20 10:54:35;;;;;;;;;;;;;;;19.43;47.07;101184.57;1683431;85;20199;-73
2021/09/20 10:57:18;;;;;;;;;;;;;;;19.44;46.42;101194.72;1703016;82;20307;-75
2021/09/20 10:59:49;;;;;;;;;;;;;;;19.44;46.03;101189.08;1715200;83;20216;-75
2021/09/20 11:02:32;;;;;;;;;;;;;;;19.46;47.05;101193.83;1724911;83;20312;-74
2021/09/20 11:05:09;;;;;;;;;;;;;;;19.47;46.99;101196.91;1724899;83;20350;-75
2021/09/20 11:07:49;;;;;;;;;;;;;;;19.48;46.98;101197.17;1724906;83;20239;-76
2021/09/20 11:10:34;;;;;;;;;;;;;;;19.46;46.75;101191.02;1720064;82;20597;-77
2021/09/20 11:13:06;;;;;;;;;;;;;;;19.42;46.89;101199.24;1718285;82;20267;-74
2021/09/20 11:15:40;;;;;;;;;;;;;;;19.44;46.97;101193.31;1723337;82;20263;-74
2021/09/20 11:18:33;;;;;;;;;;;;;;;19.43;46.64;101194.43;1723115;83;20230;-76
2021/09/20 11:21:06;;;;;;;;;;;;;;;19.43;46.28;101193.02;1717561;81;20291;-74
2021/09/20 11:23:39;;;;;;;;;;;;;;;19.44;46.71;101196.95;1720192;83;20187;-82
2021/09/20 11:26:17;;;;;;;;;;;;;;;19.46;46.99;101193.83;1723495;82;20254;-78
2021/09/20 11:28:52;;;;;;;;;;;;;;;19.50;46.31;101187.27;1723994;82;20228;-78
2021/09/20 11:31:28;;;;;;;;;;;;;;;19.56;47.06;101192.27;1717826;83;20183;-77
2021/09/20 11:34:00;;;;;;;;;;;;;;;19.63;46.42;101189.88;1720375;82;20220;-75
2021/09/20 11:36:39;;;;;;;;;;;;;;;19.68;46.27;101182.75;1723445;83;20283;-79
2021/09/20 11:39:13;;;;;;;;;;;;;;;19.71;46.00;101180.71;1723610;83;20711;-76
2021/09/20 11:41:49;;;;;;;;;;;;;;;19.73;46.38;101179.81;1723192;83;20624;-79
2021/09/20 11:44:28;;;;;;;;;;;;;;;19.75;46.38;101176.14;1720569;82;20284;-76
2021/09/20 11:47:00;;;;;;;;;;;;;;;19.78;46.98;101161.41;1720311;82;20215;-76
2021/09/20 11:49:32;;;;;;;;;;;;;;;19.80;46.47;101163.37;1723468;83;20331;-75
2021/09/20 11:52:04;;;;;;;;;;;;;;;19.80;46.65;101155.73;1723312;82;20540;-75
2021/09/20 11:54:38;;;;;;;;;;;;;;;19.83;46.50;101158.50;1751977;81;20199;-77
2021/09/20 11:57:11;;;;;;;;;;;;;;;19.85;46.33;101154.79;1764541;81;20244;-79
2021/09/20 11:59:43;;;;;;;;;;;;;;;19.88;46.52;101148.55;1764473;80;20270;-74
2021/09/20 12:02:28;;;;;;;;;;;;;;;19.92;46.10;101136.89;1764654;81;20251;-81
2021/09/20 12:05:01;;;;;;;;;;;;;;;19.95;45.54;101138.54;1764344;81;20596;-78
2021/09/20 12:07:44;;;;;;;;;;;;;;;19.99;45.87;101150.03;1764513;81;20538;-76
2021/09/20 12:10:14;;;;;;;;;;;;;;;20.02;45.78;101146.01;1758128;81;20306;-75
2021/09/20 12:12:49;;;;;;;;;;;;;;;20.09;46.28;101149.84;1764526;80;20565;-75
2021/09/20 12:15:26;;;;;;;;;;;;;;;20.15;46.53;101151.41;1764498;81;20569;-75
2021/09/20 12:18:09;;;;;;;;;;;;;;;20.22;46.41;101149.00;1764394;80;20628;-77
2021/09/20 12:20:44;;;;;;;;;;;;;;;20.26;46.12;101151.47;1764096;81;20275;-75
2021/09/20 12:23:28;;;;;;;;;;;;;;;20.29;46.09;101151.67;1764183;81;20192;-75
2021/09/20 12:26:04;;;;;;;;;;;;;;;20.28;46.19;101159.03;1755566;81;20203;-74
2021/09/20 12:28:38;;;;;;;;;;;;;;;20.23;46.10;101160.58;1764345;81;20718;-76
2021/09/20 12:31:12;;;;;;;;;;;;;;;20.17;45.87;101164.64;1764505;81;20548;-78
2021/09/20 12:33:53;;;;;;;;;;;;;;;20.09;46.19;101154.07;1760675;81;20200;-75
2021/09/20 12:36:33;;;;;;;;;;;;;;;20.06;46.48;101155.53;1764642;81;20191;-74
2021/09/20 12:39:14;;;;;;;;;;;;;;;20.02;46.17;101157.29;1738774;81;20259;-73
2021/09/20 12:41:58;;;;;;;;;;;;;;;19.98;46.20;101149.73;1719995;82;20225;-74
2021/09/20 12:44:46;;;;;;;;;;;;;;;19.95;46.47;101155.45;1700359;82;20231;-72
2021/09/20 12:47:21;;;;;;;;;;;;;;;19.94;46.61;101145.30;1726718;80;20568;-73
2021/09/20 12:50:05;;;;;;;;;;;;;;;19.95;46.25;101139.09;1743912;80;20297;-76
2021/09/20 12:52:39;;;;;;;;;;;;;;;19.95;46.39;101146.15;1754950;80;20231;-73
2021/09/20 12:55:14;;;;;;;;;;;;;;;19.98;46.66;101146.36;1754768;81;20285;-73
2021/09/20 12:57:53;;;;;;;;;;;;;;;20.04;47.68;101142.85;1749112;81;20250;-74
2021/09/20 13:00:38;;;;;;;;;;;;;;;20.09;46.29;101143.64;1752232;81;20193;-71
2021/09/20 13:03:15;;;;;;;;;;;;;;;20.13;45.90;101139.61;1752208;81;20617;-72
2021/09/20 13:05:49;;;;;;;;;;;;;;;20.18;45.70;101151.62;1754876;81;20249;-74
2021/09/20 13:08:27;;;;;;;;;;;;;;;20.19;45.85;101142.59;1758483;81;20254;-77
2021/09/20 13:11:16;;;;;;;;;;;;;;;20.20;46.27;101148.49;1759781;81;20308;-77